Time;durP1;ratioP1;P1;durP2;ratioP2;P2;SDS_P1;SDS_P2;PMS_P1;PMS_P2;Temp;Humidity;BMP_temperature;BMP_pressure;BME280_temperature;BME280_humidity;BME280_pressure;Samples;Min_cycle;Max_cycle;Signal;HPM_P1;HPM_P2
2023/08/18 04:06:05;;;;;;;2.07;1.87;;;18.20;99.90;;;;;;5336628;23;20508;-61
2023/08/18 04:08:34;;;;;;;2.47;2.27;;;18.20;99.90;;;;;;4977091;28;20415;-61
2023/08/18 04:10:59;;;;;;;1.80;1.70;;;18.10;99.90;;;;;;4977239;28;20886;-61
2023/08/18 04:13:25;;;;;;;1.70;1.60;;;18.10;99.90;;;;;;4977106;28;20385;-62
2023/08/18 04:15:50;;;;;;;1.97;1.87;;;18.10;99.90;;;;;;4976787;28;20361;-61
2023/08/18 04:18:16;;;;;;;2.07;1.93;;;18.10;99.90;;;;;;4977430;28;20262;-60
2023/08/18 04:20:41;;;;;;;2.80;2.40;;;18.10;99.90;;;;;;4977129;28;20174;-63
2023/08/18 04:23:07;;;;;;;2.23;2.03;;;18.00;99.90;;;;;;4976948;28;20229;-60
2023/08/18 04:25:33;;;;;;;3.00;2.10;;;18.00;99.90;;;;;;4976345;28;20282;-61
2023/08/18 04:27:58;;;;;;;2.07;1.93;;;18.00;99.90;;;;;;4976653;28;20182;-61
2023/08/18 04:30:24;;;;;;;2.23;2.10;;;18.00;99.90;;;;;;4976728;28;20168;-61
2023/08/18 04:32:50;;;;;;;1.97;1.87;;;18.00;99.90;;;;;;4943519;28;20168;-61
2023/08/18 04:35:16;;;;;;;1.77;1.63;;;18.00;99.90;;;;;;4975463;28;20218;-62
2023/08/18 04:37:41;;;;;;;2.73;2.10;;;18.00;99.90;;;;;;4976630;28;20386;-61
2023/08/18 04:40:08;;;;;;;5.97;2.23;;;17.90;99.90;;;;;;4976657;28;20426;-60
2023/08/18 04:42:33;;;;;;;2.10;1.83;;;17.90;99.90;;;;;;4976774;28;20534;-60
2023/08/18 04:44:59;;;;;;;2.37;2.17;;;17.90;99.90;;;;;;4976436;28;20465;-60
2023/08/18 04:47:24;;;;;;;3.97;1.57;;;17.90;99.90;;;;;;4976686;28;20696;-60
2023/08/18 04:49:50;;;;;;;2.30;2.10;;;18.00;99.90;;;;;;4976382;28;20537;-61
2023/08/18 04:52:16;;;;;;;2.07;1.90;;;18.00;99.90;;;;;;4976409;28;20551;-61
2023/08/18 04:54:42;;;;;;;2.23;2.03;;;18.00;99.90;;;;;;4975858;28;20235;-61
2023/08/18 04:57:07;;;;;;;1.93;1.83;;;18.10;99.90;;;;;;4976231;28;20404;-62
2023/08/18 04:59:33;;;;;;;1.93;1.83;;;18.20;99.90;;;;;;4976146;28;20176;-62
2023/08/18 05:01:59;;;;;;;2.33;1.97;;;18.20;99.90;;;;;;4976196;28;20217;-62
2023/08/18 05:04:25;;;;;;;1.60;1.50;;;18.30;99.90;;;;;;4975853;28;20419;-62
2023/08/18 05:06:51;;;;;;;2.10;1.90;;;18.40;99.90;;;;;;4976365;28;20207;-61
2023/08/18 05:09:16;;;;;;;1.40;1.30;;;18.50;99.90;;;;;;4976219;28;20450;-61
2023/08/18 05:11:42;;;;;;;1.50;1.47;;;18.80;99.90;;;;;;4975273;28;20618;-61
2023/08/18 05:14:08;;;;;;;2.13;2.03;;;19.00;99.90;;;;;;4975419;28;20625;-62
2023/08/18 05:16:33;;;;;;;1.83;1.73;;;19.20;99.90;;;;;;4975765;28;20192;-62
2023/08/18 05:18:59;;;;;;;3.10;2.00;;;19.30;99.90;;;;;;4975955;28;20169;-61
2023/08/18 05:21:25;;;;;;;2.33;1.93;;;19.30;99.90;;;;;;4975899;28;20275;-61
2023/08/18 05:23:50;;;;;;;2.43;1.93;;;19.30;99.90;;;;;;4975343;28;20184;-62
2023/08/18 05:26:16;;;;;;;2.83;2.63;;;19.30;99.90;;;;;;4975786;28;20196;-62
2023/08/18 05:28:43;;;;;;;2.00;1.90;;;19.40;99.90;;;;;;4975800;28;20184;-62
2023/08/18 05:31:10;;;;;;;1.60;1.50;;;19.60;99.90;;;;;;4975795;28;20524;-61
2023/08/18 05:33:36;;;;;;;1.97;1.80;;;19.70;99.90;;;;;;4975231;28;20439;-62
2023/08/18 05:36:04;;;;;;;1.70;1.60;;;19.70;99.90;;;;;;4975321;28;20525;-62
2023/08/18 05:38:29;;;;;;;1.70;1.60;;;19.60;99.90;;;;;;4975602;28;20395;-61
2023/08/18 05:41:06;;;;;;;2.27;1.63;;;19.70;99.90;;;;;;4975557;28;20422;-61
2023/08/18 05:43:34;;;;;;;1.67;1.53;;;19.80;99.90;;;;;;4975212;28;20204;-61
2023/08/18 05:45:59;;;;;;;3.60;1.93;;;20.00;99.90;;;;;;4975335;28;20432;-61
2023/08/18 05:48:25;;;;;;;1.70;1.60;;;20.20;99.90;;;;;;4975217;28;20470;-62
2023/08/18 05:50:50;;;;;;;1.30;1.20;;;20.30;99.90;;;;;;4975186;28;20180;-61
2023/08/18 05:53:16;;;;;;;2.23;1.50;;;20.40;99.90;;;;;;4975334;28;20630;-61
2023/08/18 05:55:42;;;;;;;2.07;1.97;;;20.40;99.90;;;;;;4974887;28;20195;-61
2023/08/18 05:58:07;;;;;;;1.50;1.40;;;20.50;99.90;;;;;;4975295;28;20180;-61
2023/08/18 06:00:33;;;;;;;1.43;1.33;;;20.60;99.90;;;;;;4975244;28;20176;-62
2023/08/18 06:02:59;;;;;;;1.60;1.50;;;20.70;99.90;;;;;;4975102;28;20256;-62
2023/08/18 06:05:28;;;;;;;1.63;1.60;;;20.90;99.90;;;;;;4957289;28;20665;-62
2023/08/18 06:07:54;;;;;;;2.40;1.33;;;21.10;99.90;;;;;;4974936;28;20420;-61
2023/08/18 06:10:20;;;;;;;1.37;1.27;;;21.20;99.90;;;;;;4957639;28;20443;-61
2023/08/18 06:12:45;;;;;;;2.03;1.93;;;21.30;99.90;;;;;;4975197;28;20546;-62
2023/08/18 06:15:12;;;;;;;1.80;1.70;;;21.30;99.90;;;;;;4974498;28;20545;-61
2023/08/18 06:17:38;;;;;;;2.13;1.87;;;21.30;99.90;;;;;;4974946;28;20175;-61
2023/08/18 06:20:04;;;;;;;1.23;1.23;;;21.40;99.90;;;;;;4974970;28;20378;-61
2023/08/18 06:22:30;;;;;;;4.00;1.97;;;21.30;99.90;;;;;;4974917;28;20562;-61
2023/08/18 06:24:55;;;;;;;1.33;1.23;;;21.30;99.90;;;;;;4974636;28;20532;-60
2023/08/18 06:27:21;;;;;;;1.93;1.70;;;21.30;99.90;;;;;;4974868;28;20553;-62
2023/08/18 06:29:46;;;;;;;2.60;1.87;;;21.50;99.90;;;;;;4974863;28;20183;-61
2023/08/18 06:32:12;;;;;;;1.93;1.83;;;21.60;99.90;;;;;;4974852;28;20546;-61
2023/08/18 06:34:37;;;;;;;1.80;1.70;;;21.70;99.90;;;;;;4974218;28;20213;-61
2023/08/18 06:37:03;;;;;;;1.63;1.53;;;21.80;99.90;;;;;;4974797;28;20199;-61
2023/08/18 06:39:29;;;;;;;3.83;1.50;;;21.90;99.90;;;;;;4974770;28;20179;-61
2023/08/18 06:41:55;;;;;;;1.43;1.30;;;22.00;99.90;;;;;;4974603;28;20504;-61
2023/08/18 06:44:20;;;;;;;1.63;1.53;;;22.10;99.90;;;;;;4974190;28;20230;-61
2023/08/18 06:46:47;;;;;;;1.80;1.70;;;22.10;99.90;;;;;;4974572;28;20914;-61
2023/08/18 06:49:12;;;;;;;1.73;1.63;;;22.30;99.90;;;;;;4974694;28;20181;-61
2023/08/18 06:51:38;;;;;;;2.07;1.87;;;22.40;99.90;;;;;;4974697;28;20485;-61
2023/08/18 06:54:04;;;;;;;1.40;1.30;;;22.40;99.90;;;;;;4974296;28;20211;-61
2023/08/18 06:56:29;;;;;;;1.63;1.53;;;22.50;99.90;;;;;;4974305;28;20296;-61
2023/08/18 06:58:55;;;;;;;1.77;1.67;;;22.50;99.90;;;;;;4974498;28;20416;-61
2023/08/18 07:01:20;;;;;;;3.27;1.23;;;22.50;99.90;;;;;;4974621;28;20259;-62
2023/08/18 07:03:48;;;;;;;1.20;1.20;;;22.60;99.90;;;;;;4974229;28;20211;-62
2023/08/18 07:06:13;;;;;;;1.60;1.50;;;22.70;99.90;;;;;;4974246;28;20220;-61
2023/08/18 07:08:39;;;;;;;1.70;1.60;;;22.90;99.90;;;;;;4974335;28;20423;-61
2023/08/18 07:11:05;;;;;;;1.70;1.60;;;22.90;99.90;;;;;;4974403;28;20494;-61
2023/08/18 07:13:31;;;;;;;1.60;1.50;;;23.00;99.90;;;;;;4974096;28;20658;-62
2023/08/18 07:15:56;;;;;;;1.60;1.50;;;23.20;99.90;;;;;;4974214;28;20200;-62
2023/08/18 07:18:22;;;;;;;4.40;1.60;;;23.40;99.90;;;;;;4974379;28;20173;-62
2023/08/18 07:20:47;;;;;;;1.00;1.00;;;23.50;99.90;;;;;;4974559;28;20180;-61
2023/08/18 07:23:14;;;;;;;1.40;1.30;;;23.70;99.90;;;;;;4974198;28;20255;-61
2023/08/18 07:25:41;;;;;;;1.50;1.40;;;23.90;99.90;;;;;;4973869;28;20200;-63
2023/08/18 07:28:07;;;;;;;1.20;1.20;;;24.00;99.90;;;;;;4974441;28;20748;-62
2023/08/18 07:30:33;;;;;;;1.30;1.20;;;24.20;99.90;;;;;;4974224;28;20395;-62
2023/08/18 07:32:58;;;;;;;1.23;1.23;;;24.60;99.90;;;;;;4973953;28;20382;-62
2023/08/18 07:35:24;;;;;;;3.20;1.60;;;25.00;99.90;;;;;;4975885;28;20457;-62
2023/08/18 07:37:50;;;;;;;5.33;1.70;;;25.40;99.90;;;;;;4977943;28;20542;-61
2023/08/18 07:40:16;;;;;;;1.60;1.50;;;26.00;99.90;;;;;;4977871;28;20259;-62
2023/08/18 07:42:44;;;;;;;1.40;1.30;;;26.70;99.90;;;;;;4977614;28;20446;-63
2023/08/18 07:45:10;;;;;;;1.83;1.60;;;27.60;99.90;;;;;;4977249;28;20769;-63
2023/08/18 07:47:37;;;;;;;5.20;1.93;;;28.70;99.90;;;;;;4977624;28;20519;-63
2023/08/18 07:50:07;;;;;;;1.90;1.80;;;30.10;98.20;;;;;;4977696;28;20415;-62
2023/08/18 07:52:34;;;;;;;1.80;1.70;;;31.10;96.40;;;;;;4978004;28;20426;-62
2023/08/18 07:55:00;;;;;;;2.90;1.90;;;32.10;93.80;;;;;;4977184;28;20463;-61
2023/08/18 07:57:26;;;;;;;2.00;1.90;;;33.10;92.60;;;;;;4977402;28;20498;-62
2023/08/18 07:59:52;;;;;;;1.80;1.70;;;34.30;90.40;;;;;;4977511;28;20463;-62
2023/08/18 08:02:18;;;;;;;2.13;2.00;;;35.10;85.90;;;;;;4977163;28;20411;-62
2023/08/18 08:04:43;;;;;;;1.70;1.60;;;35.50;85.80;;;;;;4976447;28;20188;-62
2023/08/18 08:07:09;;;;;;;2.03;1.93;;;36.20;84.60;;;;;;4976583;28;20214;-62
2023/08/18 08:09:34;;;;;;;2.10;2.00;;;37.00;78.90;;;;;;4977017;28;20331;-62
2023/08/18 08:12:00;;;;;;;1.70;1.60;;;37.70;79.20;;;;;;4976893;28;20191;-62
2023/08/18 08:14:26;;;;;;;1.50;1.40;;;38.30;76.50;;;;;;4976429;28;20275;-62
2023/08/18 08:16:51;;;;;;;1.67;1.63;;;38.70;73.70;;;;;;4976387;28;20231;-62
2023/08/18 08:19:17;;;;;;;1.80;1.70;;;39.10;72.50;;;;;;4976729;28;20669;-63
2023/08/18 08:21:43;;;;;;;2.20;2.10;;;39.50;68.90;;;;;;4976919;28;20172;-62
2023/08/18 08:24:08;;;;;;;1.80;1.70;;;40.00;66.90;;;;;;4976294;28;20181;-63
2023/08/18 08:26:34;;;;;;;2.00;1.90;;;40.50;66.10;;;;;;4976787;28;20236;-62
2023/08/18 08:29:00;;;;;;;1.80;1.80;;;40.90;63.70;;;;;;4976717;28;20172;-63
2023/08/18 08:31:26;;;;;;;3.03;1.90;;;41.00;62.80;;;;;;4976581;28;20458;-63
2023/08/18 08:33:51;;;;;;;1.80;1.70;;;41.10;62.20;;;;;;4976065;28;20219;-63
2023/08/18 08:36:17;;;;;;;1.70;1.70;;;40.80;61.10;;;;;;4976121;28;20307;-63
2023/08/18 08:38:43;;;;;;;1.90;1.80;;;40.40;62.50;;;;;;4976173;28;20176;-63
2023/08/18 08:41:09;;;;;;;2.00;1.90;;;40.60;62.70;;;;;;4976292;28;20224;-63
2023/08/18 08:43:36;;;;;;;1.90;1.80;;;41.00;62.10;;;;;;4975760;28;20208;-63
2023/08/18 08:46:01;;;;;;;1.80;1.70;;;40.80;61.10;;;;;;4974905;28;20789;-63
2023/08/18 08:48:37;;;;;;;2.30;2.20;;;40.80;62.50;;;;;;4976378;28;20498;-63
2023/08/18 08:51:04;;;;;;;1.90;1.80;;;40.60;61.40;;;;;;4976150;28;20566;-63
2023/08/18 08:53:35;;;;;;;2.13;2.03;;;40.60;61.60;;;;;;4975986;28;20406;-63
2023/08/18 08:56:02;;;;;;;2.20;2.10;;;40.70;59.40;;;;;;4975897;28;20465;-63
2023/08/18 08:58:31;;;;;;;1.87;1.77;;;40.90;61.10;;;;;;4976082;28;20462;-63
2023/08/18 09:01:01;;;;;;;2.10;2.00;;;41.10;59.40;;;;;;4976016;28;20470;-63
2023/08/18 09:03:28;;;;;;;2.20;2.00;;;41.30;59.10;;;;;;4975638;28;20944;-63
2023/08/18 09:05:54;;;;;;;1.67;1.57;;;41.70;59.40;;;;;;4975685;28;20509;-63
2023/08/18 09:08:21;;;;;;;1.80;1.80;;;42.00;58.50;;;;;;4976077;28;20754;-63
2023/08/18 09:10:46;;;;;;;2.00;1.87;;;42.10;58.10;;;;;;4975904;28;20459;-63
2023/08/18 09:13:12;;;;;;;1.90;1.80;;;42.00;57.30;;;;;;4975781;28;20940;-63
2023/08/18 09:15:44;;;;;;;2.00;1.90;;;41.80;57.80;;;;;;4975521;28;20302;-63
2023/08/18 09:18:11;;;;;;;1.93;1.90;;;41.60;57.60;;;;;;4975863;28;20421;-63
2023/08/18 09:20:37;;;;;;;2.13;2.00;;;41.10;57.90;;;;;;4975845;28;20404;-62
2023/08/18 09:23:03;;;;;;;2.00;1.90;;;41.00;57.90;;;;;;4975794;28;20407;-62
2023/08/18 09:25:32;;;;;;;1.90;1.80;;;41.00;58.20;;;;;;4975155;28;20286;-63
2023/08/18 09:27:58;;;;;;;1.70;1.70;;;41.10;57.30;;;;;;4975761;28;20793;-63
2023/08/18 09:30:24;;;;;;;1.90;1.90;;;40.90;57.90;;;;;;4975928;28;20422;-63
2023/08/18 09:32:50;;;;;;;1.83;1.73;;;41.00;57.80;;;;;;4976036;28;20199;-63
2023/08/18 09:35:20;;;;;;;2.13;2.07;;;41.30;57.80;;;;;;4975361;28;20290;-63
2023/08/18 09:37:55;;;;;;;1.80;1.80;;;41.80;57.90;;;;;;4975754;28;20437;-63
2023/08/18 09:40:21;;;;;;;2.03;1.93;;;42.40;57.40;;;;;;4975784;28;20473;-63
2023/08/18 09:42:47;;;;;;;1.90;1.80;;;42.50;55.40;;;;;;4958211;28;20925;-63
2023/08/18 09:45:12;;;;;;;2.07;1.97;;;42.80;55.80;;;;;;4975149;28;20196;-61
2023/08/18 09:47:42;;;;;;;3.70;1.97;;;42.80;55.00;;;;;;4975732;28;20179;-62
2023/08/18 09:50:10;;;;;;;2.40;2.20;;;42.30;55.10;;;;;;4975492;28;20279;-63
2023/08/18 09:52:38;;;;;;;2.03;1.93;;;42.00;56.60;;;;;;4975219;28;20451;-63
2023/08/18 09:55:13;;;;;;;2.00;1.90;;;41.80;56.40;;;;;;4975119;28;20446;-63
2023/08/18 09:58:06;;;;;;;2.10;2.00;;;42.10;57.00;;;;;;4974960;28;20415;-63
2023/08/18 10:00:34;;;;;;;2.10;2.00;;;42.00;55.70;;;;;;4939200;28;20965;-63
2023/08/18 10:03:03;;;;;;;1.97;1.87;;;42.00;55.60;;;;;;4975268;28;20410;-63
2023/08/18 10:05:28;;;;;;;1.47;1.47;;;41.80;56.30;;;;;;4974880;28;20813;-63
2023/08/18 10:07:55;;;;;;;1.93;1.83;;;41.60;56.10;;;;;;4975050;28;20423;-63
2023/08/18 10:10:21;;;;;;;2.00;1.90;;;41.80;56.10;;;;;;4975457;28;20270;-63
2023/08/18 10:12:47;;;;;;;2.17;2.07;;;42.00;55.50;;;;;;4975047;28;20818;-63
2023/08/18 10:15:15;;;;;;;2.20;2.10;;;42.30;55.40;;;;;;4974591;28;20560;-63
2023/08/18 10:17:42;;;;;;;1.60;1.60;;;42.60;54.90;;;;;;4975029;28;20294;-63
2023/08/18 10:20:11;;;;;;;2.10;2.00;;;42.80;54.50;;;;;;4975526;28;20957;-64
2023/08/18 10:22:37;;;;;;;1.97;1.87;;;42.90;53.80;;;;;;4974835;28;20192;-63
2023/08/18 10:25:04;;;;;;;2.03;1.93;;;42.80;54.20;;;;;;4974168;28;20471;-63
2023/08/18 10:27:29;;;;;;;1.97;1.87;;;43.00;54.00;;;;;;4974980;28;20597;-63
2023/08/18 10:30:10;;;;;;;2.20;2.10;;;42.80;55.20;;;;;;4974835;28;20434;-63
2023/08/18 10:32:36;;;;;;;1.53;1.53;;;42.70;54.10;;;;;;4974651;28;20524;-63
2023/08/18 10:35:24;;;;;;;1.80;1.70;;;42.70;53.00;;;;;;4974260;28;20439;-63
2023/08/18 10:38:05;;;;;;;1.93;1.83;;;42.50;52.70;;;;;;4974611;28;20396;-62
2023/08/18 10:40:38;;;;;;;1.40;1.40;;;42.20;52.90;;;;;;4974726;28;20435;-63
2023/08/18 10:43:13;;;;;;;1.80;1.70;;;41.60;54.50;;;;;;4974753;28;20814;-62
2023/08/18 10:45:42;;;;;;;1.97;1.87;;;41.30;54.80;;;;;;4974401;28;20487;-61
2023/08/18 10:48:09;;;;;;;2.87;1.70;;;40.90;53.80;;;;;;4957261;28;20918;-62
2023/08/18 10:50:36;;;;;;;1.20;1.20;;;40.60;54.70;;;;;;4974504;28;20416;-62
2023/08/18 10:53:04;;;;;;;1.47;1.47;;;40.50;55.10;;;;;;4974568;28;20411;-62
2023/08/18 10:55:30;;;;;;;1.83;1.73;;;40.50;54.70;;;;;;4974290;28;20842;-62
2023/08/18 10:57:57;;;;;;;1.60;1.50;;;40.50;53.80;;;;;;4974454;28;20458;-62
2023/08/18 11:00:22;;;;;;;1.60;1.50;;;40.40;53.70;;;;;;4974490;28;20511;-62
2023/08/18 11:02:49;;;;;;;1.90;1.80;;;40.00;53.60;;;;;;4974650;28;20494;-62
2023/08/18 11:05:20;;;;;;;1.97;1.87;;;39.80;53.60;;;;;;4973954;28;20234;-64
2023/08/18 11:07:46;;;;;;;1.77;1.67;;;39.70;54.00;;;;;;4974181;28;20435;-63
2023/08/18 11:10:20;;;;;;;2.00;1.80;;;39.60;54.10;;;;;;4976512;28;20408;-63
2023/08/18 11:12:47;;;;;;;1.30;1.30;;;39.10;53.50;;;;;;4978314;28;20408;-63
2023/08/18 11:15:13;;;;;;;1.63;1.53;;;38.70;54.60;;;;;;4977951;28;20474;-63
2023/08/18 11:17:40;;;;;;;2.20;1.50;;;37.90;54.60;;;;;;4978106;28;20450;-62
2023/08/18 11:20:07;;;;;;;1.77;1.67;;;36.90;55.40;;;;;;4977960;28;20451;-62
2023/08/18 11:22:36;;;;;;;1.27;1.20;;;35.80;57.40;;;;;;4978130;28;20465;-62
2023/08/18 11:25:04;;;;;;;1.70;1.33;;;35.10;58.80;;;;;;4977713;28;20475;-62
2023/08/18 11:27:31;;;;;;;1.40;1.30;;;34.40;60.00;;;;;;4978064;28;20416;-62
2023/08/18 11:29:58;;;;;;;1.37;1.27;;;33.90;61.10;;;;;;4978074;28;20411;-62
2023/08/18 11:32:24;;;;;;;1.30;1.20;;;33.50;62.50;;;;;;4977573;28;20419;-62
2023/08/18 11:34:50;;;;;;;1.23;1.13;;;33.20;63.70;;;;;;4977516;28;20451;-62
2023/08/18 11:37:22;;;;;;;1.87;1.20;;;32.90;63.80;;;;;;4978389;28;20247;-62
2023/08/18 11:39:49;;;;;;;1.50;1.40;;;32.40;64.00;;;;;;4977934;28;20566;-62
2023/08/18 11:42:14;;;;;;;1.57;1.47;;;32.10;65.80;;;;;;4977519;28;20470;-62
2023/08/18 11:44:40;;;;;;;1.43;1.27;;;31.90;64.10;;;;;;4977054;28;20442;-62
2023/08/18 11:47:11;;;;;;;1.33;1.23;;;31.70;64.70;;;;;;4977758;28;20199;-62
2023/08/18 11:49:37;;;;;;;1.33;1.23;;;31.70;65.60;;;;;;4977495;28;20935;-62
2023/08/18 11:52:04;;;;;;;1.77;1.30;;;31.50;65.60;;;;;;4977444;28;20383;-62
2023/08/18 11:54:32;;;;;;;1.10;1.10;;;31.40;65.40;;;;;;4976988;28;20173;-62
2023/08/18 11:57:05;;;;;;;1.40;1.30;;;31.30;66.40;;;;;;4977395;28;21029;-62
2023/08/18 11:59:30;;;;;;;1.80;1.70;;;31.30;67.40;;;;;;4977566;28;20840;-62
2023/08/18 12:01:58;;;;;;;1.67;1.57;;;31.30;65.80;;;;;;4960190;28;20447;-62
2023/08/18 12:04:28;;;;;;;1.33;1.23;;;31.30;64.50;;;;;;4976824;28;20290;-62
2023/08/18 12:06:54;;;;;;;2.87;1.53;;;31.30;64.40;;;;;;4977239;28;20419;-62
2023/08/18 12:09:20;;;;;;;1.70;1.50;;;31.30;65.10;;;;;;4977115;28;20407;-62
2023/08/18 12:11:47;;;;;;;1.77;1.30;;;31.30;64.50;;;;;;4977275;28;20423;-61
2023/08/18 12:14:12;;;;;;;1.40;1.30;;;31.30;65.30;;;;;;4976553;28;20499;-62
2023/08/18 12:16:38;;;;;;;1.40;1.30;;;31.30;66.00;;;;;;4977051;28;20438;-62
2023/08/18 12:19:07;;;;;;;1.43;1.33;;;31.40;66.00;;;;;;4976814;28;20172;-62
2023/08/18 12:21:38;;;;;;;1.23;1.13;;;31.40;66.80;;;;;;4976962;28;20627;-62
2023/08/18 12:24:05;;;;;;;1.40;1.40;;;31.40;67.20;;;;;;4976666;28;20437;-61
2023/08/18 12:26:34;;;;;;;1.50;1.40;;;31.30;67.50;;;;;;4976857;28;20405;-62
2023/08/18 12:29:03;;;;;;;2.13;1.50;;;31.30;69.90;;;;;;4976896;28;20551;-62
2023/08/18 12:31:30;;;;;;;1.40;1.40;;;31.40;67.30;;;;;;4976922;28;20408;-62
2023/08/18 12:33:56;;;;;;;1.60;1.50;;;31.40;68.00;;;;;;4976488;28;20477;-63
2023/08/18 12:36:21;;;;;;;1.40;1.30;;;31.40;67.20;;;;;;4976766;28;20542;-61
2023/08/18 12:38:47;;;;;;;1.90;1.30;;;31.50;67.50;;;;;;4976704;28;20177;-61
2023/08/18 12:41:16;;;;;;;2.80;1.80;;;31.50;67.00;;;;;;4976472;28;20184;-60
2023/08/18 12:43:42;;;;;;;1.60;1.50;;;31.60;68.10;;;;;;4976380;28;20211;-61
2023/08/18 12:46:08;;;;;;;2.10;1.53;;;31.60;68.00;;;;;;4959119;28;20402;-63
2023/08/18 12:48:34;;;;;;;1.30;1.27;;;31.60;68.40;;;;;;4976523;28;20375;-64
2023/08/18 12:51:00;;;;;;;2.70;2.03;;;31.70;68.90;;;;;;4976593;28;20459;-62
2023/08/18 12:53:26;;;;;;;1.10;1.00;;;31.70;67.50;;;;;;4976318;28;20465;-63
2023/08/18 12:55:51;;;;;;;2.03;1.07;;;31.70;67.60;;;;;;4976191;28;20433;-63
2023/08/18 12:58:17;;;;;;;1.60;1.50;;;31.70;67.60;;;;;;4976582;28;20172;-62
2023/08/18 13:00:42;;;;;;;1.47;1.37;;;31.70;68.00;;;;;;4976262;28;20176;-62
2023/08/18 13:03:08;;;;;;;1.10;1.10;;;31.70;67.40;;;;;;4976319;28;20227;-62
2023/08/18 13:05:34;;;;;;;1.57;1.47;;;31.70;67.30;;;;;;4975833;28;20210;-62
2023/08/18 13:08:00;;;;;;;1.37;1.27;;;31.70;67.50;;;;;;4976100;28;20716;-62
2023/08/18 13:10:25;;;;;;;1.27;1.27;;;31.70;66.50;;;;;;4976041;28;20244;-62
2023/08/18 13:12:51;;;;;;;1.77;1.67;;;31.70;67.40;;;;;;4975861;28;20432;-62
2023/08/18 13:15:17;;;;;;;1.60;1.50;;;31.70;68.10;;;;;;4975627;28;20196;-62
2023/08/18 13:17:42;;;;;;;2.00;1.47;;;31.80;66.90;;;;;;4975961;28;20654;-62
2023/08/18 13:20:08;;;;;;;1.40;1.30;;;31.80;68.00;;;;;;4975851;28;20183;-62
2023/08/18 13:22:38;;;;;;;1.63;1.53;;;31.90;66.90;;;;;;4975696;28;20663;-62
2023/08/18 13:25:10;;;;;;;2.00;1.30;;;31.90;67.90;;;;;;4975220;28;20816;-62
2023/08/18 13:27:36;;;;;;;1.93;1.67;;;31.90;66.80;;;;;;4975569;28;20459;-62
2023/08/18 13:30:03;;;;;;;1.50;1.40;;;31.90;67.40;;;;;;4975600;28;20400;-62
2023/08/18 13:32:28;;;;;;;1.50;1.40;;;32.00;67.10;;;;;;4957685;28;20173;-62
2023/08/18 13:34:54;;;;;;;1.70;1.60;;;31.90;66.50;;;;;;4975270;28;20772;-62
2023/08/18 13:37:20;;;;;;;2.00;1.77;;;31.90;68.00;;;;;;4975755;28;20198;-62
2023/08/18 13:39:45;;;;;;;1.43;1.23;;;31.80;67.30;;;;;;4975413;28;20202;-62
2023/08/18 13:42:11;;;;;;;1.40;1.30;;;31.90;67.30;;;;;;4975580;28;20574;-62
2023/08/18 13:44:36;;;;;;;1.97;1.87;;;31.80;67.20;;;;;;4975093;28;20215;-62
2023/08/18 13:47:02;;;;;;;1.43;1.33;;;31.90;67.20;;;;;;4975363;28;20334;-62
2023/08/18 13:49:27;;;;;;;1.60;1.40;;;31.90;67.30;;;;;;4975410;28;20553;-62
2023/08/18 13:51:53;;;;;;;1.10;1.10;;;31.90;67.70;;;;;;4975293;28;20235;-62
2023/08/18 13:54:19;;;;;;;1.73;1.63;;;31.90;67.30;;;;;;4974824;28;20673;-62
2023/08/18 13:56:45;;;;;;;3.70;2.20;;;31.90;66.80;;;;;;4975070;28;20451;-62
2023/08/18 13:59:10;;;;;;;1.37;1.27;;;31.90;66.60;;;;;;4975122;28;20188;-62
2023/08/18 14:01:36;;;;;;;1.60;1.50;;;31.80;65.90;;;;;;4975024;28;20172;-62
2023/08/18 14:04:02;;;;;;;1.20;1.20;;;31.80;66.10;;;;;;4974811;28;20200;-62
2023/08/18 14:06:28;;;;;;;2.40;1.50;;;31.80;66.70;;;;;;4974777;28;20208;-62
2023/08/18 14:08:54;;;;;;;1.63;1.50;;;31.80;67.60;;;;;;4974984;28;20387;-62
2023/08/18 14:11:19;;;;;;;1.33;1.27;;;31.80;67.50;;;;;;4974936;28;20222;-62
2023/08/18 14:13:45;;;;;;;1.57;1.47;;;31.80;67.40;;;;;;4974422;28;20382;-62
2023/08/18 14:16:12;;;;;;;2.10;1.20;;;31.80;66.90;;;;;;4975050;28;20231;-62
2023/08/18 14:18:38;;;;;;;1.27;1.17;;;31.80;67.80;;;;;;4974847;28;20239;-62
2023/08/18 14:21:04;;;;;;;1.60;1.23;;;31.80;66.90;;;;;;4974931;28;20379;-63
2023/08/18 14:23:30;;;;;;;1.53;1.30;;;31.80;67.30;;;;;;4974365;28;20184;-62
2023/08/18 14:25:56;;;;;;;1.50;1.40;;;31.80;66.90;;;;;;4957179;28;20830;-62
2023/08/18 14:28:21;;;;;;;1.37;1.27;;;31.80;66.20;;;;;;4957339;28;20427;-62
2023/08/18 14:30:47;;;;;;;1.70;1.60;;;31.80;67.20;;;;;;4974814;28;20259;-62
2023/08/18 14:33:13;;;;;;;1.50;1.40;;;31.90;66.50;;;;;;4974915;28;20180;-61
2023/08/18 14:35:44;;;;;;;1.50;1.37;;;31.80;67.00;;;;;;4974232;28;20228;-62
2023/08/18 14:38:10;;;;;;;1.60;1.50;;;31.80;67.50;;;;;;4957309;28;20563;-62
2023/08/18 14:40:39;;;;;;;1.60;1.50;;;31.80;68.70;;;;;;4974300;28;20427;-62
2023/08/18 14:43:05;;;;;;;1.60;1.50;;;31.90;69.20;;;;;;4974470;28;20275;-62
2023/08/18 14:45:31;;;;;;;1.73;1.37;;;31.90;69.60;;;;;;4973375;28;20959;-62
2023/08/18 14:47:57;;;;;;;1.50;1.40;;;32.00;69.00;;;;;;4974482;28;20850;-61
2023/08/18 14:50:22;;;;;;;1.17;1.17;;;32.00;68.70;;;;;;4974559;28;20411;-63
2023/08/18 14:52:48;;;;;;;4.30;1.27;;;32.10;68.10;;;;;;4974768;28;20176;-62
2023/08/18 14:55:14;;;;;;;1.30;1.20;;;32.10;67.80;;;;;;4974136;28;20207;-61
2023/08/18 14:57:40;;;;;;;1.30;1.20;;;32.10;67.90;;;;;;4974374;28;20427;-62
2023/08/18 15:00:08;;;;;;;5.30;1.90;;;32.10;68.10;;;;;;4974197;28;20894;-62
2023/08/18 15:02:38;;;;;;;1.20;1.20;;;32.10;68.30;;;;;;4974230;28;20207;-62
2023/08/18 15:05:04;;;;;;;1.73;1.63;;;32.10;68.50;;;;;;4956386;28;20478;-62
2023/08/18 15:07:30;;;;;;;1.73;1.60;;;32.10;68.80;;;;;;4974166;28;20406;-61
2023/08/18 15:09:55;;;;;;;1.80;1.70;;;32.00;67.50;;;;;;4974275;28;20426;-61
2023/08/18 15:12:21;;;;;;;2.80;1.30;;;32.00;68.20;;;;;;4974245;28;20204;-62
2023/08/18 15:14:47;;;;;;;1.33;1.23;;;32.00;69.30;;;;;;4973825;28;20592;-62
2023/08/18 15:17:13;;;;;;;2.00;1.90;;;32.00;68.20;;;;;;4974290;28;20186;-61
2023/08/18 15:19:38;;;;;;;1.73;1.63;;;31.90;68.50;;;;;;4974311;28;20173;-61
2023/08/18 15:22:04;;;;;;;1.70;1.60;;;31.90;69.00;;;;;;4974021;28;20212;-61
2023/08/18 15:24:30;;;;;;;1.40;1.30;;;31.80;69.30;;;;;;4973878;28;20742;-61
2023/08/18 15:26:56;;;;;;;2.60;1.40;;;31.80;69.40;;;;;;4974269;28;20182;-61
2023/08/18 15:29:21;;;;;;;1.70;1.60;;;31.80;70.40;;;;;;4974178;28;20469;-62
2023/08/18 15:31:47;;;;;;;1.50;1.40;;;31.80;70.40;;;;;;4974165;28;20176;-60
2023/08/18 15:34:13;;;;;;;3.77;1.60;;;31.80;70.50;;;;;;4973607;28;20173;-61
2023/08/18 15:36:38;;;;;;;1.53;1.43;;;31.80;70.60;;;;;;4974028;28;20184;-62
2023/08/18 15:39:04;;;;;;;1.47;1.43;;;31.80;70.30;;;;;;4974137;28;20187;-62
2023/08/18 15:41:37;;;;;;;1.70;1.50;;;31.80;69.80;;;;;;4973996;28;20184;-61
2023/08/18 15:44:03;;;;;;;1.20;1.20;;;31.70;70.60;;;;;;4973649;28;20441;-61
2023/08/18 15:46:28;;;;;;;1.53;1.43;;;31.70;70.40;;;;;;4973883;28;20415;-61
2023/08/18 15:48:54;;;;;;;2.23;1.73;;;31.70;70.20;;;;;;4973811;28;20418;-62
2023/08/18 15:51:20;;;;;;;1.67;1.57;;;31.70;70.90;;;;;;4973988;28;20179;-61
2023/08/18 15:53:46;;;;;;;1.63;1.53;;;31.60;71.10;;;;;;4973710;28;20383;-61
2023/08/18 15:56:13;;;;;;;1.40;1.40;;;31.60;70.70;;;;;;4975895;28;20188;-61
2023/08/18 15:58:38;;;;;;;1.70;1.60;;;31.60;71.20;;;;;;4977488;28;20175;-60
2023/08/18 16:01:04;;;;;;;1.73;1.63;;;31.60;71.70;;;;;;4960212;28;20391;-62
2023/08/18 16:03:30;;;;;;;1.90;1.80;;;31.60;71.40;;;;;;4977095;28;20179;-63
2023/08/18 16:05:55;;;;;;;1.80;1.60;;;31.60;71.60;;;;;;4977102;28;20655;-62
2023/08/18 16:08:21;;;;;;;1.90;1.70;;;31.50;71.30;;;;;;4977380;28;20211;-62
2023/08/18 16:10:46;;;;;;;1.60;1.50;;;31.50;70.40;;;;;;4959953;28;20223;-62
2023/08/18 16:13:13;;;;;;;1.90;1.60;;;31.40;71.30;;;;;;4977156;28;20172;-62
2023/08/18 16:15:40;;;;;;;1.50;1.40;;;31.40;71.30;;;;;;4976808;28;20207;-62
2023/08/18 16:18:06;;;;;;;1.37;1.30;;;31.40;72.30;;;;;;4977126;28;20773;-62
2023/08/18 16:20:32;;;;;;;1.33;1.23;;;31.40;72.00;;;;;;4976918;28;20935;-61
2023/08/18 16:22:58;;;;;;;1.70;1.60;;;31.30;72.30;;;;;;4977180;28;20489;-62
2023/08/18 16:25:23;;;;;;;1.60;1.50;;;31.40;71.90;;;;;;4976446;28;20350;-62
2023/08/18 16:27:49;;;;;;;1.80;1.70;;;31.30;72.30;;;;;;4976995;28;20263;-62
2023/08/18 16:30:15;;;;;;;1.53;1.43;;;31.30;72.90;;;;;;4977042;28;20578;-62
2023/08/18 16:32:41;;;;;;;1.67;1.57;;;31.20;73.50;;;;;;4976670;28;20392;-62
2023/08/18 16:35:08;;;;;;;1.63;1.10;;;31.20;72.90;;;;;;4976390;28;20495;-62
2023/08/18 16:37:34;;;;;;;1.87;1.70;;;31.20;72.90;;;;;;4976840;28;20386;-62
2023/08/18 16:39:59;;;;;;;1.50;1.40;;;31.10;73.50;;;;;;4959763;28;20415;-62
2023/08/18 16:42:25;;;;;;;1.80;1.70;;;31.10;73.60;;;;;;4976590;28;20416;-62
2023/08/18 16:44:51;;;;;;;1.80;1.70;;;31.20;74.10;;;;;;4976275;28;20203;-62
2023/08/18 16:47:16;;;;;;;2.23;1.57;;;31.10;74.40;;;;;;4976738;28;20639;-62
2023/08/18 16:49:42;;;;;;;1.63;1.47;;;31.10;74.50;;;;;;4976592;28;20573;-62